Time;durP1;ratioP1;P1;durP2;ratioP2;P2;SDS_P1;SDS_P2;PMS_P1;PMS_P2;Temp;Humidity;BMP_temperature;BMP_pressure;BME280_temperature;BME280_humidity;BME280_pressure;Samples;Min_cycle;Max_cycle;Signal;HPM_P1;HPM_P2
2023/09/28 00:02:06;;;;;;;;;11.80;10.00;;;;;22.38;64.16;101185.78;5078195;28;45275;-42
2023/09/28 00:04:32;;;;;;;;;15.50;11.00;;;;;22.35;63.97;101179.94;5077243;28;45353;-43
2023/09/28 00:06:58;;;;;;;;;12.50;10.25;;;;;22.29;64.39;101178.94;5077845;28;46968;-42
2023/09/28 00:09:23;;;;;;;;;11.75;11.25;;;;;22.28;64.15;101179.13;5077904;28;45450;-41
2023/09/28 00:11:50;;;;;;;;;13.60;11.00;;;;;22.27;64.26;101183.72;5077929;28;45424;-44
2023/09/28 00:14:15;;;;;;;;;12.75;9.25;;;;;22.23;64.23;101178.94;5078333;28;45305;-42
2023/09/28 00:16:40;;;;;;;;;13.00;11.00;;;;;22.22;64.42;101180.00;5077743;28;46306;-42
2023/09/28 00:19:06;;;;;;;;;9.50;7.50;;;;;22.20;64.05;101177.47;5077853;28;45327;-43
2023/09/28 00:21:31;;;;;;;;;12.00;10.00;;;;;22.12;63.97;101180.38;5077602;28;45362;-41
2023/09/28 00:23:57;;;;;;;;;9.00;9.00;;;;;22.13;64.40;101190.22;5078086;28;45424;-44
2023/09/28 00:26:23;;;;;;;;;12.50;11.00;;;;;22.08;64.55;101185.41;5077915;28;47368;-43
2023/09/28 00:28:48;;;;;;;;;11.50;9.00;;;;;22.05;64.59;101193.13;5077787;28;45467;-45
2023/09/28 00:31:13;;;;;;;;;9.25;9.00;;;;;22.01;64.44;101181.88;5078031;28;45682;-43
2023/09/28 00:33:39;;;;;;;;;11.00;8.75;;;;;22.01;64.77;101187.28;5077874;28;45374;-43
2023/09/28 00:36:04;;;;;;;;;12.00;10.50;;;;;21.98;64.95;101198.53;5077538;28;46897;-43
2023/09/28 00:38:29;;;;;;;;;8.75;7.25;;;;;21.96;64.94;101206.06;5077602;28;45313;-41
2023/09/28 00:40:55;;;;;;;;;13.00;10.50;;;;;21.94;64.76;101216.25;5076758;28;45405;-42
2023/09/28 00:43:27;;;;;;;;;16.75;11.00;;;;;21.93;64.63;101222.72;5077938;28;46145;-42
2023/09/28 00:45:52;;;;;;;;;12.00;10.25;;;;;21.89;64.59;101225.03;5077413;28;45418;-44
2023/09/28 00:48:17;;;;;;;;;13.75;9.50;;;;;21.93;64.76;101220.03;5077756;28;45331;-43
2023/09/28 00:50:43;;;;;;;;;10.00;9.00;;;;;21.95;64.78;101222.50;5077683;28;45756;-44
2023/09/28 00:53:10;;;;;;;;;9.25;9.25;;;;;21.97;64.80;101229.41;5077818;28;45292;-42
2023/09/28 00:55:39;;;;;;;;;8.25;8.00;;;;;21.96;64.98;101230.44;5077270;28;46328;-42
2023/09/28 00:58:06;;;;;;;;;10.40;10.40;;;;;21.98;64.88;101225.63;5076446;28;45269;-42
2023/09/28 01:00:34;;;;;;;;;11.20;9.60;;;;;22.02;64.56;101223.34;5077418;28;45486;-42
2023/09/28 01:03:02;;;;;;;;;10.00;9.00;;;;;22.04;64.64;101224.81;5077312;28;45570;-42
2023/09/28 01:05:33;;;;;;;;;8.00;8.00;;;;;22.01;64.25;101214.38;5077170;28;46272;-43
2023/09/28 01:08:06;;;;;;;;;13.00;8.80;;;;;22.07;64.48;101210.81;5077192;28;45358;-42
2023/09/28 01:10:35;;;;;;;;;11.20;7.60;;;;;22.09;64.22;101219.59;5077158;28;45316;-42
2023/09/28 01:13:05;;;;;;;;;10.75;8.75;;;;;22.10;64.39;101215.81;5077329;28;45252;-41
2023/09/28 01:15:32;;;;;;;;;7.60;7.60;;;;;21.95;64.35;101190.00;5076668;28;46245;-43
2023/09/28 01:17:58;;;;;;;;;8.20;8.00;;;;;21.99;64.38;101200.22;5077049;28;45350;-43
2023/09/28 01:20:31;;;;;;;;;10.25;10.00;;;;;21.95;64.29;101190.84;5077337;28;45633;-43
2023/09/28 01:22:57;;;;;;;;;10.75;7.75;;;;;21.91;64.26;101190.44;5075831;28;45262;-44
2023/09/28 01:25:22;;;;;;;;;11.50;10.25;;;;;21.88;64.61;101190.88;5076846;28;46141;-44
2023/09/28 01:27:49;;;;;;;;;8.50;7.00;;;;;21.85;65.03;101193.16;5077312;28;45330;-47
2023/09/28 01:30:16;;;;;;;;;8.20;8.20;;;;;21.81;64.99;101200.84;5076940;28;45320;-44
2023/09/28 01:32:42;;;;;;;;;9.00;9.00;;;;;21.78;64.93;101213.97;5077208;28;45403;-43
2023/09/28 01:35:08;;;;;;;;;7.00;7.00;;;;;21.74;65.15;101218.16;5076581;28;46354;-45
2023/09/28 01:37:52;;;;;;;;;9.40;8.00;;;;;21.71;65.08;101224.84;5075521;28;45268;-43
2023/09/28 01:40:18;;;;;;;;;8.00;8.00;;;;;21.63;65.38;101208.78;5059183;28;45372;-41
2023/09/28 01:42:43;;;;;;;;;9.00;6.50;;;;;21.66;65.62;101217.34;5076975;28;45391;-43
2023/09/28 01:45:09;;;;;;;;;8.50;7.75;;;;;21.64;65.47;101227.53;5058621;28;46289;-43
2023/09/28 01:47:35;;;;;;;;;10.25;8.75;;;;;21.49;65.46;101204.41;5058519;28;45534;-42
2023/09/28 01:50:01;;;;;;;;;9.50;7.50;;;;;21.58;65.68;101233.78;5076583;28;45383;-42
2023/09/28 01:52:26;;;;;;;;;8.25;7.00;;;;;21.51;65.97;101226.69;5076918;28;45429;-43
2023/09/28 01:54:52;;;;;;;;;10.00;8.75;;;;;21.49;65.53;101224.19;5076258;28;46178;-44
2023/09/28 01:57:17;;;;;;;;;8.00;8.00;;;;;21.48;65.78;101232.50;5076688;28;45363;-43
2023/09/28 01:59:43;;;;;;;;;12.00;9.00;;;;;21.47;66.06;101245.22;5076757;28;45385;-42
2023/09/28 02:02:08;;;;;;;;;8.75;8.00;;;;;21.45;66.27;101252.72;5058538;28;45509;-43
2023/09/28 02:04:37;;;;;;;;;8.00;8.00;;;;;21.41;66.20;101240.63;5076573;28;46045;-42
2023/09/28 02:07:02;;;;;;;;;6.80;6.20;;;;;21.43;66.44;101241.25;5076288;28;45424;-41
2023/09/28 02:09:29;;;;;;;;;9.50;8.00;;;;;21.35;66.23;101234.16;5056811;28;45427;-43
2023/09/28 02:11:54;;;;;;;;;13.50;10.00;;;;;21.44;66.21;101242.91;5076509;28;45328;-43
2023/09/28 02:14:19;;;;;;;;;10.25;8.50;;;;;21.44;66.29;101251.03;5076308;28;45893;-43
2023/09/28 02:16:45;;;;;;;;;6.00;6.00;;;;;21.45;66.39;101243.75;5076404;28;45355;-43
2023/09/28 02:19:11;;;;;;;;;12.50;8.00;;;;;21.47;66.51;101247.09;5076499;28;45461;-43
2023/09/28 02:21:36;;;;;;;;;9.00;7.50;;;;;21.47;65.74;101236.25;5058097;28;45776;-49
2023/09/28 02:24:01;;;;;;;;;8.75;7.75;;;;;21.47;66.23;101228.16;5076075;28;46270;-43
2023/09/28 02:26:27;;;;;;;;;8.00;6.75;;;;;21.50;66.14;101227.75;5057871;28;45580;-48
2023/09/28 02:28:52;;;;;;;;;9.00;9.00;;;;;21.52;65.76;101229.19;5076342;28;45256;-45
2023/09/28 02:31:17;;;;;;;;;5.50;5.25;;;;;21.55;66.07;101245.03;5076504;28;45253;-44
2023/09/28 02:33:43;;;;;;;;;11.25;6.00;;;;;21.56;65.83;101237.72;5076033;28;46229;-42
2023/09/28 02:36:08;;;;;;;;;6.50;6.50;;;;;21.56;66.17;101243.97;5075558;28;45348;-44
2023/09/28 02:38:34;;;;;;;;;12.00;8.75;;;;;21.57;65.92;101245.63;5074913;28;45341;-46
2023/09/28 02:40:59;;;;;;;;;11.00;6.00;;;;;21.63;65.84;101241.28;5058071;28;45958;-42
2023/09/28 02:43:24;;;;;;;;;6.00;6.00;;;;;21.62;66.08;101235.03;5075778;28;45347;-43
2023/09/28 02:45:50;;;;;;;;;6.50;6.50;;;;;21.64;65.54;101241.06;5075798;28;45400;-44
2023/09/28 02:48:16;;;;;;;;;12.00;7.75;;;;;21.66;65.81;101239.00;5076169;28;45391;-45
2023/09/28 02:50:42;;;;;;;;;16.00;14.25;;;;;21.63;65.80;101227.75;5076022;28;45565;-44
2023/09/28 02:53:07;;;;;;;;;11.50;10.00;;;;;21.64;65.99;101215.88;5075942;28;45362;-43
2023/09/28 02:55:32;;;;;;;;;8.25;8.00;;;;;21.63;66.11;101214.22;5075602;28;45390;-43
2023/09/28 02:57:58;;;;;;;;;7.25;6.50;;;;;21.64;65.94;101232.13;5075892;28;45417;-44
2023/09/28 03:02:53;;;;;;;;;7.50;6.50;;;;;21.43;65.92;101217.72;5075655;28;45891;-42
2023/09/28 03:05:21;;;;;;;;;8.00;8.00;;;;;21.42;66.08;101226.88;5075904;28;45323;-43
2023/09/28 03:07:47;;;;;;;;;7.00;5.80;;;;;21.42;66.49;101240.44;5075538;28;45413;-41
2023/09/28 03:10:12;;;;;;;;;9.50;5.00;;;;;21.46;66.31;101254.38;5076030;28;45337;-42
2023/09/28 03:12:38;;;;;;;;;7.00;7.00;;;;;21.32;66.23;101226.47;5075417;28;47477;-43
2023/09/28 03:15:10;;;;;;;;;8.20;8.00;;;;;21.47;66.48;101258.75;5075571;28;45583;-43
2023/09/28 03:17:36;;;;;;;;;6.40;6.40;;;;;21.44;66.62;101245.63;5075327;28;45414;-43
2023/09/28 03:20:09;;;;;;;;;10.75;6.50;;;;;21.46;66.54;101245.44;5075881;28;45328;-45
2023/09/28 03:22:35;;;;;;;;;6.00;6.00;;;;;21.43;66.74;101246.66;5079050;28;47163;-47
2023/09/28 03:25:01;;;;;;;;;6.75;5.75;;;;;21.41;66.79;101254.16;5078844;28;45434;-47
2023/09/28 03:27:26;;;;;;;;;7.50;7.00;;;;;21.40;66.69;101255.19;5078473;28;45426;-49
2023/09/28 03:29:52;;;;;;;;;9.75;6.25;;;;;21.43;66.74;101257.50;5078976;28;45317;-50
2023/09/28 03:32:17;;;;;;;;;9.00;7.00;;;;;21.41;66.62;101267.72;5078654;28;46298;-43
2023/09/28 03:34:42;;;;;;;;;8.50;6.75;;;;;21.40;66.56;101268.72;5078887;28;45384;-61
2023/09/28 03:37:08;;;;;;;;;6.75;5.00;;;;;21.38;66.53;101270.81;5078655;28;45874;-51
2023/09/28 03:39:33;;;;;;;;;6.00;6.00;;;;;21.29;67.06;101253.91;5079013;28;45629;-52
2023/09/28 03:41:58;;;;;;;;;8.00;8.00;;;;;21.34;67.18;101272.25;5078376;28;45414;-44
2023/09/28 03:44:24;;;;;;;;;8.00;6.00;;;;;21.36;66.71;101279.16;5078618;28;48481;-43
2023/09/28 03:46:49;;;;;;;;;7.00;7.00;;;;;21.33;66.89;101270.59;5078393;28;49186;-43
2023/09/28 03:49:14;;;;;;;;;10.25;7.00;;;;;21.36;66.94;101283.69;5078744;28;45354;-43
2023/09/28 03:51:39;;;;;;;;;9.25;7.00;;;;;21.33;67.22;101278.72;5078504;28;46273;-46
2023/09/28 03:54:05;;;;;;;;;8.00;6.75;;;;;21.25;67.35;101268.88;5077410;28;47622;-49
2023/09/28 03:56:31;;;;;;;;;10.50;7.50;;;;;21.30;67.48;101277.22;5078454;28;45350;-42
2023/09/28 03:58:56;;;;;;;;;6.50;6.00;;;;;21.31;67.46;101280.75;5078728;28;45297;-41
2023/09/28 04:01:21;;;;;;;;;9.00;8.00;;;;;21.28;67.70;101282.00;5078127;28;46021;-44
2023/09/28 04:03:47;;;;;;;;;6.25;5.75;;;;;21.32;67.22;101291.41;5078250;28;45334;-46
2023/09/28 04:06:13;;;;;;;;;8.50;8.00;;;;;21.34;67.52;101285.78;5077898;28;45244;-50
2023/09/28 04:08:39;;;;;;;;;6.25;5.25;;;;;21.33;64.71;101284.13;5078961;28;45572;-47
2023/09/28 04:11:04;;;;;;;;;7.00;4.00;;;;;21.26;62.92;101283.25;5078132;28;46235;-42
2023/09/28 04:13:29;;;;;;;;;4.25;3.50;;;;;21.26;62.55;101280.53;5078344;28;45408;-43
2023/09/28 04:15:55;;;;;;;;;5.00;3.50;;;;;21.30;61.62;101292.63;5078119;28;45590;-43
2023/09/28 04:18:20;;;;;;;;;3.00;2.25;;;;;21.25;60.75;101287.81;5078439;28;45442;-42
2023/09/28 04:20:46;;;;;;;;;6.50;3.00;;;;;21.25;60.47;101289.69;5077759;28;46274;-47
2023/09/28 04:23:12;;;;;;;;;7.50;5.00;;;;;21.23;60.17;101299.88;5077912;28;45424;-43
2023/09/28 04:25:38;;;;;;;;;8.60;4.00;;;;;21.17;59.20;101290.72;5077978;28;45397;-44
2023/09/28 04:28:03;;;;;;;;;4.75;3.00;;;;;21.20;59.39;101305.72;5078125;28;45398;-52
2023/09/28 04:30:28;;;;;;;;;4.75;2.75;;;;;21.15;59.08;101298.19;5077796;28;45389;-44
2023/09/28 04:32:54;;;;;;;;;7.50;5.00;;;;;21.08;58.49;101292.75;5076785;28;49767;-50
2023/09/28 04:35:20;;;;;;;;;4.25;4.00;;;;;21.17;58.42;101318.59;5077980;28;45424;-44
2023/09/28 04:37:47;;;;;;;;;2.50;2.50;;;;;21.16;58.40;101324.22;5077831;28;45372;-42
2023/09/28 04:40:13;;;;;;;;;3.20;1.20;;;;;21.17;58.14;101324.00;5077821;28;46223;-47
2023/09/28 04:42:39;;;;;;;;;3.25;3.25;;;;;21.18;57.41;101319.41;5077543;28;45699;-42
2023/09/28 04:45:05;;;;;;;;;5.00;3.00;;;;;21.13;57.57;101311.91;5077843;28;45473;-44
2023/09/28 04:47:30;;;;;;;;;4.75;4.00;;;;;21.15;57.71;101319.81;5077907;28;45389;-43
2023/09/28 04:49:56;;;;;;;;;6.00;3.00;;;;;21.15;57.43;101323.38;5077461;28;45374;-43
2023/09/28 04:52:22;;;;;;;;;4.50;1.75;;;;;21.13;57.43;101311.91;5077533;28;45376;-45
2023/09/28 04:54:48;;;;;;;;;5.60;3.00;;;;;21.13;57.50;101305.69;5077594;28;45829;-51
2023/09/28 04:57:14;;;;;;;;;4.50;2.25;;;;;21.10;57.34;101306.06;5059668;28;45853;-42
2023/09/28 04:59:40;;;;;;;;;6.50;4.00;;;;;21.11;57.63;101307.72;5077852;28;46662;-44
2023/09/28 05:02:05;;;;;;;;;3.50;3.00;;;;;21.11;57.91;101310.44;5077249;28;45288;-47
2023/09/28 05:04:30;;;;;;;;;2.50;2.00;;;;;21.08;57.23;101311.69;5077493;28;45554;-45
2023/09/28 05:06:59;;;;;;;;;4.50;2.75;;;;;20.98;57.30;101295.00;5077540;28;45299;-44
2023/09/28 05:09:25;;;;;;;;;4.40;3.80;;;;;21.01;57.49;101310.00;5077341;28;45538;-42
2023/09/28 05:11:51;;;;;;;;;3.40;2.40;;;;;20.98;57.42;101318.50;5076836;28;45251;-51
2023/09/28 05:14:16;;;;;;;;;5.25;3.50;;;;;20.93;57.35;101319.09;5059459;28;45311;-49
2023/09/28 05:16:42;;;;;;;;;5.50;2.50;;;;;20.94;57.33;101323.47;5077464;28;45789;-43
2023/09/28 05:19:08;;;;;;;;;4.40;2.20;;;;;20.90;57.30;101312.25;5076829;28;46085;-42
2023/09/28 05:21:33;;;;;;;;;7.25;2.75;;;;;20.95;57.30;101327.88;5077166;28;45410;-44
2023/09/28 05:23:58;;;;;;;;;3.75;3.75;;;;;20.95;57.28;101335.16;5076330;28;45391;-44
2023/09/28 05:26:24;;;;;;;;;3.50;3.00;;;;;20.80;57.54;101319.03;5077348;28;45336;-44
2023/09/28 05:28:49;;;;;;;;;5.25;3.75;;;;;20.89;57.38;101343.00;5076961;28;46049;-45
2023/09/28 05:31:14;;;;;;;;;5.50;2.50;;;;;20.86;57.17;101342.59;5076359;28;45307;-44
2023/09/28 05:33:41;;;;;;;;;3.50;2.00;;;;;20.86;57.25;101342.59;5077155;28;45767;-43
2023/09/28 05:36:07;;;;;;;;;3.20;2.20;;;;;20.82;57.47;101334.06;5076915;28;45660;-42
2023/09/28 05:38:32;;;;;;;;;3.50;3.00;;;;;20.79;57.61;101330.91;5076716;28;45485;-44
2023/09/28 05:40:57;;;;;;;;;3.00;2.50;;;;;20.83;57.66;101340.28;5076334;28;45489;-45
2023/09/28 05:43:23;;;;;;;;;4.75;2.00;;;;;20.83;57.30;101345.69;5076516;28;45301;-42
2023/09/28 05:45:48;;;;;;;;;4.75;3.00;;;;;20.81;57.19;101351.28;5076856;28;45422;-43
2023/09/28 05:48:13;;;;;;;;;6.00;4.25;;;;;20.79;57.26;101361.47;5076644;28;46284;-41
2023/09/28 05:50:40;;;;;;;;;9.75;5.25;;;;;20.78;57.54;101364.41;5076490;28;45315;-42
2023/09/28 05:53:05;;;;;;;;;7.60;4.60;;;;;20.77;57.84;101373.50;5076600;28;45358;-44
2023/09/28 05:55:31;;;;;;;;;6.50;3.00;;;;;20.78;57.32;101375.22;5058658;28;45280;-45
2023/09/28 05:57:57;;;;;;;;;5.60;3.40;;;;;20.77;57.78;101382.47;5076073;28;45756;-43
2023/09/28 06:00:22;;;;;;;;;4.25;2.25;;;;;20.77;57.60;101370.81;5076636;28;45362;-44
2023/09/28 06:02:48;;;;;;;;;8.50;5.75;;;;;20.79;57.12;101360.66;5076509;28;45421;-43
2023/09/28 06:05:13;;;;;;;;;9.75;6.50;;;;;20.80;56.84;101365.00;5076760;28;45425;-44
2023/09/28 06:07:39;;;;;;;;;3.75;3.75;;;;;20.81;56.80;101374.78;5076164;28;46034;-42
2023/09/28 06:10:05;;;;;;;;;5.00;3.00;;;;;20.68;56.82;101343.94;5076222;28;45596;-43
2023/09/28 06:12:30;;;;;;;;;7.00;2.60;;;;;20.74;56.91;101365.81;5076228;28;45153;-52
2023/09/28 06:14:55;;;;;;;;;4.00;2.00;;;;;20.73;56.78;101359.59;5076390;28;45478;-51
2023/09/28 06:17:21;;;;;;;;;5.00;3.00;;;;;20.81;56.45;101372.91;5076215;28;45371;-43
2023/09/28 06:19:46;;;;;;;;;2.25;2.00;;;;;20.81;56.45;101370.22;5076097;28;45318;-41
2023/09/28 06:22:12;;;;;;;;;3.25;2.00;;;;;20.82;56.79;101363.78;5076215;28;45412;-44
2023/09/28 06:24:37;;;;;;;;;3.00;2.00;;;;;20.83;56.31;101372.75;5058192;28;45352;-43
2023/09/28 06:27:03;;;;;;;;;6.75;1.00;;;;;20.81;56.33;101386.44;5075938;28;45470;-42
2023/09/28 06:29:31;;;;;;;;;5.50;2.75;;;;;20.81;56.73;101385.59;5076168;28;45354;-51
2023/09/28 06:31:56;;;;;;;;;3.20;2.20;;;;;20.78;56.47;101380.63;5076043;28;45319;-42
2023/09/28 06:34:21;;;;;;;;;8.00;4.00;;;;;20.81;56.73;101386.44;5076209;28;45383;-45
2023/09/28 06:36:46;;;;;;;;;2.25;2.25;;;;;20.79;56.27;101390.38;5075802;28;46161;-48
2023/09/28 06:39:12;;;;;;;;;3.50;3.00;;;;;20.80;56.55;101389.34;5075806;28;45384;-48
2023/09/28 06:41:38;;;;;;;;;3.25;1.50;;;;;20.78;56.79;101386.03;5076094;28;45419;-53
2023/09/28 06:44:03;;;;;;;;;5.75;3.00;;;;;20.66;56.48;101370.34;5075451;28;45532;-51
2023/09/28 06:46:29;;;;;;;;;8.75;2.50;;;;;20.74;56.97;101398.25;5075791;28;46346;-53
2023/09/28 06:48:55;;;;;;;;;6.00;3.00;;;;;20.67;56.82;101390.09;5075753;28;45632;-46
2023/09/28 06:51:21;;;;;;;;;4.00;3.00;;;;;20.68;56.48;101397.16;5076283;28;45304;-57
2023/09/28 06:53:47;;;;;;;;;6.25;2.00;;;;;20.70;56.28;101405.94;5058042;28;45596;-52
2023/09/28 06:56:12;;;;;;;;;4.75;3.50;;;;;20.64;56.09;101395.88;5077348;28;46431;-43
2023/09/28 06:58:38;;;;;;;;;7.50;4.00;;;;;20.68;55.98;101405.28;5079380;28;45423;-49
2023/09/28 07:01:03;;;;;;;;;5.25;3.50;;;;;20.67;55.61;101404.44;5079392;28;45611;-54
2023/09/28 07:03:31;;;;;;;;;5.50;2.00;;;;;20.65;55.67;101409.22;5079516;28;45382;-47
2023/09/28 07:05:56;;;;;;;;;6.20;4.60;;;;;20.54;55.68;101385.44;5078858;28;47227;-49
2023/09/28 07:08:21;;;;;;;;;3.50;2.25;;;;;20.61;55.21;101388.19;5079368;28;45450;-46
2023/09/28 07:10:47;;;;;;;;;3.00;3.00;;;;;20.69;55.42;101382.63;5079581;28;45462;-44
2023/09/28 07:13:12;;;;;;;;;5.25;2.25;;;;;20.75;55.68;101398.06;5079312;28;45359;-54
2023/09/28 07:15:37;;;;;;;;;6.25;2.00;;;;;20.82;55.32;101395.41;5060658;28;45441;-47
2023/09/28 07:18:03;;;;;;;;;5.25;3.00;;;;;20.92;55.81;101401.28;5078936;28;45379;-50
2023/09/28 07:20:29;;;;;;;;;3.75;2.25;;;;;21.01;55.64;101405.50;5079222;28;45357;-43
2023/09/28 07:22:55;;;;;;;;;7.20;2.00;;;;;20.92;55.31;101379.66;5079286;28;45365;-48
2023/09/28 07:25:21;;;;;;;;;4.00;2.50;;;;;21.10;55.01;101414.28;5060637;28;46623;-46
2023/09/28 07:27:50;;;;;;;;;7.50;3.00;;;;;21.14;54.48;101419.09;5078718;28;45339;-43
2023/09/28 07:30:19;;;;;;;;;6.40;3.00;;;;;21.18;54.52;101433.06;5079070;28;45539;-52
2023/09/28 07:32:45;;;;;;;;;8.75;5.75;;;;;21.26;54.62;101449.13;5078271;28;45342;-45
2023/09/28 07:35:11;;;;;;;;;6.00;4.00;;;;;21.32;54.22;101458.34;5079002;28;46321;-47
2023/09/28 07:37:37;;;;;;;;;6.75;4.00;;;;;21.37;53.98;101470.25;5078617;28;45477;-43
2023/09/28 07:40:04;;;;;;;;;7.60;3.60;;;;;21.41;53.48;101463.41;5078758;28;45192;-49
2023/09/28 07:42:30;;;;;;;;;4.00;1.00;;;;;21.43;53.59;101463.19;5078054;28;45458;-43
2023/09/28 07:44:55;;;;;;;;;5.20;3.80;;;;;21.45;53.47;101458.44;5078452;28;46175;-44
2023/09/28 07:47:21;;;;;;;;;6.75;2.00;;;;;21.53;53.27;101462.81;5078007;28;45438;-43
2023/09/28 07:49:46;;;;;;;;;3.00;2.00;;;;;21.62;52.74;101462.47;5078739;28;45469;-43
2023/09/28 07:52:12;;;;;;;;;6.00;3.00;;;;;21.76;52.24;101467.94;5078016;28;45387;-49
2023/09/28 07:54:37;;;;;;;;;2.50;2.00;;;;;21.79;51.75;101446.69;5078527;28;46579;-43
2023/09/28 07:57:07;;;;;;;;;5.00;3.00;;;;;21.99;51.53;101462.97;5078298;28;45438;-46
2023/09/28 07:59:34;;;;;;;;;4.40;2.00;;;;;22.09;51.64;101463.44;5078624;28;45375;-42
2023/09/28 08:02:00;;;;;;;;;6.80;2.40;;;;;22.21;51.34;101460.16;5078288;28;45451;-43
2023/09/28 08:04:25;;;;;;;;;7.60;2.60;;;;;22.18;50.98;101445.16;5078293;28;47312;-47
2023/09/28 08:06:51;;;;;;;;;4.25;3.00;;;;;22.35;50.95;101461.84;5078244;28;45393;-43
2023/09/28 08:09:19;;;;;;;;;8.80;5.00;;;;;22.36;50.47;101458.91;5078312;28;45325;-42
2023/09/28 08:11:48;;;;;;;;;6.80;4.00;;;;;22.37;50.56;101470.59;5078624;28;45298;-43
2023/09/28 08:14:15;;;;;;;;;4.00;2.60;;;;;22.47;50.45;101468.31;5078016;28;46111;-47
2023/09/28 08:16:42;;;;;;;;;6.60;3.00;;;;;22.55;50.03;101464.59;5077587;28;45323;-49
2023/09/28 08:19:07;;;;;;;;;6.80;2.00;;;;;22.63;49.75;101470.63;5078160;28;45473;-50
2023/09/28 08:21:34;;;;;;;;;5.25;3.00;;;;;22.71;50.00;101466.84;5078384;28;45342;-45
2023/09/28 08:23:59;;;;;;;;;4.80;2.80;;;;;22.82;49.56;101470.81;5077884;28;46240;-47
2023/09/28 08:26:25;;;;;;;;;6.75;3.75;;;;;22.96;49.17;101469.78;5077421;28;45236;-47
2023/09/28 08:28:50;;;;;;;;;5.25;3.00;;;;;23.74;48.13;101474.41;5077894;28;45358;-44
2023/09/28 08:31:15;;;;;;;;;5.75;3.50;;;;;24.58;46.27;101486.88;5077962;28;45303;-52
2023/09/28 08:33:41;;;;;;;;;6.50;3.25;;;;;25.29;44.83;101491.88;5078093;28;46070;-44
2023/09/28 08:36:08;;;;;;;;;3.25;1.75;;;;;25.95;43.57;101479.34;5077619;28;45347;-51
2023/09/28 08:38:33;;;;;;;;;5.80;3.20;;;;;26.62;42.36;101496.41;5077929;28;45204;-46
2023/09/28 08:41:00;;;;;;;;;2.75;2.25;;;;;26.83;41.77;101510.56;5078276;28;45421;-46
2023/09/28 08:43:32;;;;;;;;;3.40;3.40;;;;;26.59;42.27;101490.63;5077245;28;46271;-43
2023/09/28 08:46:03;;;;;;;;;3.60;1.60;;;;;26.46;42.35;101504.44;5077824;28;45390;-43
2023/09/28 08:48:30;;;;;;;;;2.20;1.40;;;;;26.67;41.60;101498.44;5077646;28;45383;-44
2023/09/28 08:51:09;;;;;;;;;5.00;2.80;;;;;26.97;41.87;101498.38;5077820;28;46188;-45
2023/09/28 08:53:37;;;;;;;;;5.80;2.20;;;;;27.35;40.81;101505.25;5077516;28;47253;-43
2023/09/28 08:56:07;;;;;;;;;3.00;2.00;;;;;27.70;39.32;101510.63;5077542;28;45712;-45
2023/09/28 08:58:37;;;;;;;;;5.20;2.20;;;;;27.83;39.27;101484.94;5077422;28;45406;-46
2023/09/28 09:01:04;;;;;;;;;3.40;2.00;;;;;28.24;38.13;101492.03;5077731;28;45366;-53
2023/09/28 09:03:31;;;;;;;;;3.80;3.00;;;;;28.47;37.50;101479.28;5077296;28;45967;-41
2023/09/28 09:05:57;;;;;;;;;5.00;2.00;;;;;28.79;36.82;101468.59;5077305;28;45357;-49
2023/09/28 09:08:25;;;;;;;;;3.50;1.50;;;;;29.07;36.66;101453.94;5077392;28;45461;-43
2023/09/28 09:10:51;;;;;;;;;0.80;0.80;;;;;29.30;36.12;101458.38;5077419;28;45413;-44
2023/09/28 09:13:18;;;;;;;;;2.80;1.80;;;;;29.54;36.02;101468.00;5077102;28;46108;-41
2023/09/28 09:15:44;;;;;;;;;4.00;2.20;;;;;29.86;35.34;101461.81;5077403;28;45398;-44
2023/09/28 09:18:18;;;;;;;;;4.75;1.25;;;;;29.82;35.49;101460.66;5076851;28;45406;-44
2023/09/28 09:20:46;;;;;;;;;3.20;2.60;;;;;29.69;34.82;101448.19;5076667;28;45444;-45
2023/09/28 09:23:12;;;;;;;;;1.00;1.00;;;;;29.76;35.49;101448.00;5077046;28;46989;-41
2023/09/28 09:25:43;;;;;;;;;1.60;1.00;;;;;29.52;34.99;101445.50;5077275;28;45207;-53
2023/09/28 09:28:09;;;;;;;;;4.60;3.00;;;;;29.62;35.56;101453.03;5077120;28;45524;-42
2023/09/28 09:30:37;;;;;;;;;2.25;2.00;;;;;29.60;35.13;101449.75;5077466;28;45328;-49
2023/09/28 09:33:09;;;;;;;;;5.80;1.00;;;;;29.83;35.60;101463.19;5076781;28;46601;-57
2023/09/28 09:35:38;;;;;;;;;6.80;2.00;;;;;29.98;35.05;101459.75;5076915;28;45341;-58
2023/09/28 09:38:03;;;;;;;;;4.00;2.40;;;;;30.12;34.93;101460.16;5077054;28;45542;-47
2023/09/28 09:40:30;;;;;;;;;3.75;2.75;;;;;30.36;34.23;101468.09;5076974;28;45315;-44
2023/09/28 09:43:05;;;;;;;;;3.40;1.80;;;;;30.63;34.36;101462.53;5076510;28;46062;-42
2023/09/28 09:45:31;;;;;;;;;2.80;1.60;;;;;30.81;34.06;101465.72;5076671;28;45390;-47
2023/09/28 09:47:58;;;;;;;;;2.25;0.75;;;;;30.83;33.30;101442.66;5076791;28;45589;-43
2023/09/28 09:50:23;;;;;;;;;2.20;2.00;;;;;31.12;32.22;101463.16;5076878;28;45477;-45
2023/09/28 09:52:50;;;;;;;;;5.25;1.00;;;;;31.29;32.11;101468.50;5076640;28;45438;-48
2023/09/28 09:55:15;;;;;;;;;6.60;4.00;;;;;31.24;32.77;101477.50;5076685;28;45322;-42
2023/09/28 09:57:46;;;;;;;;;1.50;1.50;;;;;31.08;33.07;101472.19;5076738;28;45540;-44
2023/09/28 10:00:15;;;;;;;;;4.80;3.20;;;;;31.10;33.11;101478.25;5076138;28;45498;-43
2023/09/28 10:02:42;;;;;;;;;2.00;1.00;;;;;31.09;32.99;101482.09;5076414;28;46972;-44
2023/09/28 10:05:10;;;;;;;;;2.40;2.00;;;;;31.25;32.84;101478.34;5076527;28;45356;-42
2023/09/28 10:07:37;;;;;;;;;5.00;1.60;;;;;31.43;32.96;101469.63;5076601;28;45317;-52
2023/09/28 10:10:05;;;;;;;;;5.60;3.80;;;;;31.50;34.12;101470.22;5076798;28;45436;-43
2023/09/28 10:12:30;;;;;;;;;4.80;2.00;;;;;31.51;32.00;101474.63;5076492;28;47238;-45
2023/09/28 10:14:58;;;;;;;;;4.25;2.50;;;;;31.55;31.98;101464.75;5076344;28;45274;-46
2023/09/28 10:17:28;;;;;;;;;2.40;2.00;;;;;31.83;32.44;101470.06;5076540;28;45390;-46
2023/09/28 10:19:59;;;;;;;;;9.00;4.40;;;;;32.20;30.76;101465.22;5076545;28;45514;-42
2023/09/28 10:22:24;;;;;;;;;3.60;0.20;;;;;32.56;31.65;101451.44;5075795;28;45546;-44
2023/09/28 10:24:49;;;;;;;;;9.50;5.00;;;;;32.99;29.61;101449.19;5076392;28;45368;-42
2023/09/28 10:27:15;;;;;;;;;4.00;2.50;;;;;33.20;29.70;101447.19;5076553;28;45560;-43
2023/09/28 10:29:41;;;;;;;;;8.75;3.00;;;;;33.17;29.37;101434.81;5076232;28;45476;-46
2023/09/28 10:32:15;;;;;;;;;4.00;4.00;;;;;33.05;30.05;101436.22;5079285;28;46198;-43
2023/09/28 10:34:43;;;;;;;;;4.00;3.00;;;;;32.83;29.60;101451.16;5079954;28;45573;-43
2023/09/28 10:37:10;;;;;;;;;11.40;7.40;;;;;32.60;30.93;101449.78;5079648;28;45233;-43
2023/09/28 10:39:36;;;;;;;;;5.20;3.60;;;;;32.23;29.49;101455.56;5080112;28;45232;-41
2023/09/28 10:42:10;;;;;;;;;3.00;2.40;;;;;31.86;30.01;101445.63;5079615;28;45377;-42
2023/09/28 10:44:48;;;;;;;;;3.80;2.40;;;;;31.38;31.09;101446.81;5079607;28;45450;-43
2023/09/28 10:47:13;;;;;;;;;4.20;4.00;;;;;30.91;31.47;101437.47;5061700;28;45368;-44
2023/09/28 10:49:39;;;;;;;;;3.25;1.00;;;;;30.41;31.84;101430.50;5061901;28;45379;-43
2023/09/28 10:52:09;;;;;;;;;5.75;3.25;;;;;30.07;32.65;101429.91;5079343;28;45830;-45
2023/09/28 10:54:34;;;;;;;;;3.80;3.00;;;;;29.73;32.67;101429.31;5078558;28;45381;-45
2023/09/28 10:57:01;;;;;;;;;3.00;2.25;;;;;29.40;33.58;101430.28;5079588;28;45316;-43
2023/09/28 10:59:27;;;;;;;;;5.00;2.60;;;;;29.16;33.63;101433.28;5080118;28;45937;-47
2023/09/28 11:01:53;;;;;;;;;2.80;2.80;;;;;28.99;33.75;101433.31;5079089;28;51520;-45
2023/09/28 11:04:19;;;;;;;;;2.60;2.60;;;;;28.96;33.66;101428.34;5079353;28;45426;-43
2023/09/28 11:06:45;;;;;;;;;1.25;1.25;;;;;28.94;33.92;101424.97;5079547;28;45284;-53
2023/09/28 11:09:11;;;;;;;;;7.00;4.00;;;;;29.19;33.13;101427.28;5079429;28;45215;-43
2023/09/28 11:11:39;;;;;;;;;1.60;1.60;;;;;29.87;32.61;101426.97;5079549;28;45819;-51
2023/09/28 11:14:05;;;;;;;;;5.20;3.20;;;;;30.19;32.43;101421.56;5079072;28;45448;-49
2023/09/28 11:16:35;;;;;;;;;3.75;2.25;;;;;30.18;31.99;101408.94;5079181;28;45676;-47
2023/09/28 11:19:01;;;;;;;;;4.80;3.00;;;;;30.32;32.18;101424.69;5079765;28;45341;-50
2023/09/28 11:21:29;;;;;;;;;3.75;3.00;;;;;31.04;31.69;101427.94;5078999;28;46344;-51
2023/09/28 11:23:54;;;;;;;;;4.00;2.00;;;;;31.89;31.12;101424.97;5078937;28;45365;-45